You are not logged in, Click here to log in
機場資訊:ZGHA Welcome to Taiwan Airways 台灣虛擬航空
ICAO: ZGHA Country: 湖南省長沙市長沙縣黃花鎮
Latitude: 28.1967 Longitude: 113.221
Total Arrivals: 8 Total Departures: 7
Latest Arrival: AE5977 (RCTP-ZGHA)Lun. Wang Latest Departure: CI8802 (ZGHA-RCTP)Lun. Wang
Scenery:
METAR : ZGHA 141800Z 34005MPS 6000 BKN050 19/17 Q1026 NOSIG

長沙黃花國際機場